sensor_id;sensor_type;location;lat;lon;timestamp;P1;durP1;ratioP1;P2;durP2;ratioP2
7841;SDS011;3966;51.052;13.820;2022-11-21T00:00:38;39.55;;;13.48;;
7841;SDS011;3966;51.052;13.820;2022-11-21T00:03:04;47.13;;;14.57;;
7841;SDS011;3966;51.052;13.820;2022-11-21T00:05:30;47.08;;;14.70;;
7841;SDS011;3966;51.052;13.820;2022-11-21T00:07:57;45.17;;;15.27;;
7841;SDS011;3966;51.052;13.820;2022-11-21T00:10:23;47.40;;;14.57;;
7841;SDS011;3966;51.052;13.820;2022-11-21T00:12:53;51.28;;;15.68;;
7841;SDS011;3966;51.052;13.820;2022-11-21T00:15:20;47.08;;;15.40;;
7841;SDS011;3966;51.052;13.820;2022-11-21T00:17:46;46.05;;;15.30;;
7841;SDS011;3966;51.052;13.820;2022-11-21T00:20:11;37.70;;;13.93;;
7841;SDS011;3966;51.052;13.820;2022-11-21T00:22:37;45.92;;;15.85;;
7841;SDS011;3966;51.052;13.820;2022-11-21T00:25:02;47.75;;;15.00;;
7841;SDS011;3966;51.052;13.820;2022-11-21T00:27:28;46.10;;;15.80;;
7841;SDS011;3966;51.052;13.820;2022-11-21T00:29:54;43.25;;;14.85;;
7841;SDS011;3966;51.052;13.820;2022-11-21T00:32:19;45.35;;;15.15;;
7841;SDS011;3966;51.052;13.820;2022-11-21T00:34:45;46.08;;;15.30;;
7841;SDS011;3966;51.052;13.820;2022-11-21T00:37:10;49.95;;;15.70;;
7841;SDS011;3966;51.052;13.820;2022-11-21T00:39:36;47.25;;;16.02;;
7841;SDS011;3966;51.052;13.820;2022-11-21T00:42:01;46.60;;;15.82;;
7841;SDS011;3966;51.052;13.820;2022-11-21T00:44:27;49.70;;;15.85;;
7841;SDS011;3966;51.052;13.820;2022-11-21T00:46:53;50.50;;;16.08;;
7841;SDS011;3966;51.052;13.820;2022-11-21T00:49:18;44.55;;;16.00;;
7841;SDS011;3966;51.052;13.820;2022-11-21T00:51:44;50.13;;;15.68;;
7841;SDS011;3966;51.052;13.820;2022-11-21T00:54:09;50.55;;;17.58;;
7841;SDS011;3966;51.052;13.820;2022-11-21T00:56:35;51.53;;;16.77;;
7841;SDS011;3966;51.052;13.820;2022-11-21T00:59:00;47.20;;;17.40;;
7841;SDS011;3966;51.052;13.820;2022-11-21T01:01:26;53.33;;;17.77;;
7841;SDS011;3966;51.052;13.820;2022-11-21T01:03:51;46.72;;;15.68;;
7841;SDS011;3966;51.052;13.820;2022-11-21T01:06:17;46.28;;;16.35;;
7841;SDS011;3966;51.052;13.820;2022-11-21T01:08:43;50.05;;;17.02;;
7841;SDS011;3966;51.052;13.820;2022-11-21T01:11:10;50.72;;;17.00;;
7841;SDS011;3966;51.052;13.820;2022-11-21T01:13:37;49.28;;;16.42;;
7841;SDS011;3966;51.052;13.820;2022-11-21T01:18:40;52.30;;;17.50;;
7841;SDS011;3966;51.052;13.820;2022-11-21T01:21:10;47.85;;;17.75;;
7841;SDS011;3966;51.052;13.820;2022-11-21T01:23:38;49.08;;;16.60;;
7841;SDS011;3966;51.052;13.820;2022-11-21T01:26:04;50.92;;;16.08;;
7841;SDS011;3966;51.052;13.820;2022-11-21T01:28:31;48.20;;;16.45;;
7841;SDS011;3966;51.052;13.820;2022-11-21T01:31:02;56.35;;;16.73;;
7841;SDS011;3966;51.052;13.820;2022-11-21T01:33:41;46.80;;;16.17;;
7841;SDS011;3966;51.052;13.820;2022-11-21T01:36:08;52.15;;;16.85;;
7841;SDS011;3966;51.052;13.820;2022-11-21T01:38:35;46.83;;;15.75;;
7841;SDS011;3966;51.052;13.820;2022-11-21T01:41:01;51.28;;;15.27;;
7841;SDS011;3966;51.052;13.820;2022-11-21T01:43:27;49.75;;;15.10;;
7841;SDS011;3966;51.052;13.820;2022-11-21T01:45:56;36.72;;;12.80;;
7841;SDS011;3966;51.052;13.820;2022-11-21T01:48:31;36.63;;;13.40;;
7841;SDS011;3966;51.052;13.820;2022-11-21T01:51:06;41.80;;;13.85;;
7841;SDS011;3966;51.052;13.820;2022-11-21T01:54:03;42.45;;;13.70;;
7841;SDS011;3966;51.052;13.820;2022-11-21T01:56:34;34.35;;;12.32;;
7841;SDS011;3966;51.052;13.820;2022-11-21T01:59:05;44.05;;;14.52;;
7841;SDS011;3966;51.052;13.820;2022-11-21T02:01:33;34.00;;;12.35;;
7841;SDS011;3966;51.052;13.820;2022-11-21T02:04:00;31.65;;;12.07;;
7841;SDS011;3966;51.052;13.820;2022-11-21T02:06:27;33.13;;;11.68;;
7841;SDS011;3966;51.052;13.820;2022-11-21T02:08:53;34.17;;;11.90;;
7841;SDS011;3966;51.052;13.820;2022-11-21T02:14:09;31.35;;;10.43;;
7841;SDS011;3966;51.052;13.820;2022-11-21T02:16:35;29.85;;;10.50;;
7841;SDS011;3966;51.052;13.820;2022-11-21T02:19:01;26.50;;;9.85;;
7841;SDS011;3966;51.052;13.820;2022-11-21T02:21:31;22.73;;;8.45;;
7841;SDS011;3966;51.052;13.820;2022-11-21T02:24:11;24.65;;;8.50;;
7841;SDS011;3966;51.052;13.820;2022-11-21T02:26:38;19.67;;;7.40;;
7841;SDS011;3966;51.052;13.820;2022-11-21T02:29:05;23.15;;;8.50;;
7841;SDS011;3966;51.052;13.820;2022-11-21T02:31:31;25.35;;;9.15;;
7841;SDS011;3966;51.052;13.820;2022-11-21T02:33:57;31.35;;;10.45;;
7841;SDS011;3966;51.052;13.820;2022-11-21T02:39:13;25.48;;;9.55;;
7841;SDS011;3966;51.052;13.820;2022-11-21T02:41:49;29.65;;;10.82;;
7841;SDS011;3966;51.052;13.820;2022-11-21T02:44:57;32.17;;;11.18;;
7841;SDS011;3966;51.052;13.820;2022-11-21T02:47:33;31.88;;;11.63;;
7841;SDS011;3966;51.052;13.820;2022-11-21T02:50:06;26.77;;;10.32;;
7841;SDS011;3966;51.052;13.820;2022-11-21T02:52:36;27.48;;;10.30;;
7841;SDS011;3966;51.052;13.820;2022-11-21T02:55:02;32.15;;;11.75;;
7841;SDS011;3966;51.052;13.820;2022-11-21T02:57:28;34.17;;;12.85;;
7841;SDS011;3966;51.052;13.820;2022-11-21T02:59:54;39.80;;;12.68;;
7841;SDS011;3966;51.052;13.820;2022-11-21T03:02:19;30.35;;;10.85;;
7841;SDS011;3966;51.052;13.820;2022-11-21T03:04:45;26.10;;;11.05;;
7841;SDS011;3966;51.052;13.820;2022-11-21T03:07:10;30.70;;;10.02;;
7841;SDS011;3966;51.052;13.820;2022-11-21T03:09:36;25.58;;;9.73;;
7841;SDS011;3966;51.052;13.820;2022-11-21T03:12:08;34.25;;;10.90;;
7841;SDS011;3966;51.052;13.820;2022-11-21T03:14:34;26.95;;;10.85;;
7841;SDS011;3966;51.052;13.820;2022-11-21T03:17:01;34.10;;;12.10;;
7841;SDS011;3966;51.052;13.820;2022-11-21T03:19:27;26.95;;;9.38;;
7841;SDS011;3966;51.052;13.820;2022-11-21T03:21:53;27.10;;;9.75;;
7841;SDS011;3966;51.052;13.820;2022-11-21T03:24:19;28.65;;;10.82;;
7841;SDS011;3966;51.052;13.820;2022-11-21T03:26:44;31.80;;;12.30;;
7841;SDS011;3966;51.052;13.820;2022-11-21T03:29:10;24.98;;;9.43;;
7841;SDS011;3966;51.052;13.820;2022-11-21T03:31:35;19.50;;;8.40;;
7841;SDS011;3966;51.052;13.820;2022-11-21T03:34:01;28.35;;;10.02;;
7841;SDS011;3966;51.052;13.820;2022-11-21T03:36:27;20.88;;;9.05;;
7841;SDS011;3966;51.052;13.820;2022-11-21T03:38:55;23.77;;;9.65;;
7841;SDS011;3966;51.052;13.820;2022-11-21T03:41:21;21.58;;;7.18;;
7841;SDS011;3966;51.052;13.820;2022-11-21T03:44:00;19.75;;;8.90;;
7841;SDS011;3966;51.052;13.820;2022-11-21T03:46:28;24.33;;;8.95;;
7841;SDS011;3966;51.052;13.820;2022-11-21T03:48:55;24.05;;;9.18;;
7841;SDS011;3966;51.052;13.820;2022-11-21T03:51:21;20.80;;;8.82;;
7841;SDS011;3966;51.052;13.820;2022-11-21T03:53:48;15.70;;;6.43;;
7841;SDS011;3966;51.052;13.820;2022-11-21T03:56:14;26.10;;;8.30;;
7841;SDS011;3966;51.052;13.820;2022-11-21T03:58:40;21.27;;;7.85;;
7841;SDS011;3966;51.052;13.820;2022-11-21T04:01:06;15.75;;;6.18;;
7841;SDS011;3966;51.052;13.820;2022-11-21T04:03:32;20.30;;;6.25;;
7841;SDS011;3966;51.052;13.820;2022-11-21T04:05:58;9.57;;;5.15;;
7841;SDS011;3966;51.052;13.820;2022-11-21T04:08:24;8.50;;;4.22;;
7841;SDS011;3966;51.052;13.820;2022-11-21T04:10:51;11.43;;;4.28;;
7841;SDS011;3966;51.052;13.820;2022-11-21T04:13:18;14.85;;;5.32;;
7841;SDS011;3966;51.052;13.820;2022-11-21T04:15:44;12.52;;;5.75;;
7841;SDS011;3966;51.052;13.820;2022-11-21T04:18:10;15.40;;;5.63;;
7841;SDS011;3966;51.052;13.820;2022-11-21T04:20:37;11.05;;;4.90;;
7841;SDS011;3966;51.052;13.820;2022-11-21T04:23:03;10.15;;;4.65;;
7841;SDS011;3966;51.052;13.820;2022-11-21T04:25:29;9.10;;;4.15;;
7841;SDS011;3966;51.052;13.820;2022-11-21T04:27:56;16.55;;;5.20;;
7841;SDS011;3966;51.052;13.820;2022-11-21T04:30:22;13.07;;;5.45;;
7841;SDS011;3966;51.052;13.820;2022-11-21T04:32:51;12.88;;;5.18;;
7841;SDS011;3966;51.052;13.820;2022-11-21T04:35:17;19.60;;;7.78;;
7841;SDS011;3966;51.052;13.820;2022-11-21T04:37:43;16.33;;;6.55;;
7841;SDS011;3966;51.052;13.820;2022-11-21T04:40:09;11.27;;;5.55;;
7841;SDS011;3966;51.052;13.820;2022-11-21T04:42:35;12.25;;;5.93;;
7841;SDS011;3966;51.052;13.820;2022-11-21T04:45:01;14.90;;;5.35;;
7841;SDS011;3966;51.052;13.820;2022-11-21T04:47:27;10.55;;;5.68;;
7841;SDS011;3966;51.052;13.820;2022-11-21T04:49:52;16.77;;;6.57;;
7841;SDS011;3966;51.052;13.820;2022-11-21T04:52:18;14.38;;;6.45;;
7841;SDS011;3966;51.052;13.820;2022-11-21T04:54:43;16.23;;;5.50;;
7841;SDS011;3966;51.052;13.820;2022-11-21T04:57:09;14.07;;;6.15;;
7841;SDS011;3966;51.052;13.820;2022-11-21T04:59:35;12.45;;;5.82;;
7841;SDS011;3966;51.052;13.820;2022-11-21T05:02:03;10.73;;;4.72;;
7841;SDS011;3966;51.052;13.820;2022-11-21T05:04:29;11.85;;;5.80;;
7841;SDS011;3966;51.052;13.820;2022-11-21T05:06:54;17.33;;;6.00;;
7841;SDS011;3966;51.052;13.820;2022-11-21T05:09:20;12.65;;;6.47;;
7841;SDS011;3966;51.052;13.820;2022-11-21T05:11:45;16.52;;;5.95;;
7841;SDS011;3966;51.052;13.820;2022-11-21T05:14:29;16.17;;;6.28;;
7841;SDS011;3966;51.052;13.820;2022-11-21T05:16:55;15.80;;;6.18;;
7841;SDS011;3966;51.052;13.820;2022-11-21T05:19:20;13.70;;;6.10;;
7841;SDS011;3966;51.052;13.820;2022-11-21T05:21:46;9.63;;;4.78;;
7841;SDS011;3966;51.052;13.820;2022-11-21T05:24:11;15.25;;;6.07;;
7841;SDS011;3966;51.052;13.820;2022-11-21T05:26:37;16.13;;;6.40;;
7841;SDS011;3966;51.052;13.820;2022-11-21T05:29:03;15.13;;;6.22;;
7841;SDS011;3966;51.052;13.820;2022-11-21T05:31:28;20.65;;;8.10;;
7841;SDS011;3966;51.052;13.820;2022-11-21T05:33:54;13.10;;;6.55;;
7841;SDS011;3966;51.052;13.820;2022-11-21T05:36:20;17.02;;;6.78;;
7841;SDS011;3966;51.052;13.820;2022-11-21T05:38:45;23.50;;;10.35;;
7841;SDS011;3966;51.052;13.820;2022-11-21T05:41:11;42.17;;;15.95;;
7841;SDS011;3966;51.052;13.820;2022-11-21T05:43:36;20.42;;;9.75;;
7841;SDS011;3966;51.052;13.820;2022-11-21T05:46:11;21.42;;;8.60;;
7841;SDS011;3966;51.052;13.820;2022-11-21T05:48:38;15.23;;;7.40;;
7841;SDS011;3966;51.052;13.820;2022-11-21T05:51:04;17.98;;;8.15;;
7841;SDS011;3966;51.052;13.820;2022-11-21T05:53:29;21.58;;;9.95;;
7841;SDS011;3966;51.052;13.820;2022-11-21T05:55:55;19.42;;;8.40;;
7841;SDS011;3966;51.052;13.820;2022-11-21T05:58:24;23.23;;;11.02;;
7841;SDS011;3966;51.052;13.820;2022-11-21T06:00:54;24.30;;;11.43;;
7841;SDS011;3966;51.052;13.820;2022-11-21T06:03:21;20.13;;;10.32;;
7841;SDS011;3966;51.052;13.820;2022-11-21T06:06:02;21.35;;;9.60;;
7841;SDS011;3966;51.052;13.820;2022-11-21T06:08:36;15.73;;;8.38;;
7841;SDS011;3966;51.052;13.820;2022-11-21T06:11:03;19.85;;;9.52;;
7841;SDS011;3966;51.052;13.820;2022-11-21T06:13:30;22.75;;;9.02;;
7841;SDS011;3966;51.052;13.820;2022-11-21T06:18:29;13.85;;;7.18;;
7841;SDS011;3966;51.052;13.820;2022-11-21T06:21:02;16.48;;;7.63;;
7841;SDS011;3966;51.052;13.820;2022-11-21T06:23:30;19.25;;;9.88;;
7841;SDS011;3966;51.052;13.820;2022-11-21T06:25:56;17.25;;;8.05;;
7841;SDS011;3966;51.052;13.820;2022-11-21T06:28:23;18.65;;;9.02;;
7841;SDS011;3966;51.052;13.820;2022-11-21T06:30:50;19.95;;;8.32;;
7841;SDS011;3966;51.052;13.820;2022-11-21T06:33:16;19.63;;;8.27;;
7841;SDS011;3966;51.052;13.820;2022-11-21T06:35:42;21.90;;;7.93;;
7841;SDS011;3966;51.052;13.820;2022-11-21T06:38:08;19.75;;;8.25;;
7841;SDS011;3966;51.052;13.820;2022-11-21T06:40:33;18.48;;;7.65;;
7841;SDS011;3966;51.052;13.820;2022-11-21T06:42:59;17.45;;;7.40;;
7841;SDS011;3966;51.052;13.820;2022-11-21T06:45:25;25.08;;;10.88;;
7841;SDS011;3966;51.052;13.820;2022-11-21T06:47:50;30.60;;;11.80;;
7841;SDS011;3966;51.052;13.820;2022-11-21T06:50:16;22.20;;;8.93;;
7841;SDS011;3966;51.052;13.820;2022-11-21T06:52:42;22.02;;;8.48;;
7841;SDS011;3966;51.052;13.820;2022-11-21T06:55:08;22.02;;;8.95;;
7841;SDS011;3966;51.052;13.820;2022-11-21T06:57:34;18.20;;;8.05;;
7841;SDS011;3966;51.052;13.820;2022-11-21T07:00:00;23.65;;;8.60;;
7841;SDS011;3966;51.052;13.820;2022-11-21T07:02:26;19.15;;;8.93;;
7841;SDS011;3966;51.052;13.820;2022-11-21T07:04:51;16.90;;;8.63;;
7841;SDS011;3966;51.052;13.820;2022-11-21T07:07:17;18.13;;;8.07;;
7841;SDS011;3966;51.052;13.820;2022-11-21T07:09:43;21.65;;;8.88;;
7841;SDS011;3966;51.052;13.820;2022-11-21T07:12:09;20.38;;;8.80;;
7841;SDS011;3966;51.052;13.820;2022-11-21T07:14:53;23.48;;;9.40;;
7841;SDS011;3966;51.052;13.820;2022-11-21T07:17:19;24.08;;;9.35;;
7841;SDS011;3966;51.052;13.820;2022-11-21T07:19:44;25.98;;;10.23;;
7841;SDS011;3966;51.052;13.820;2022-11-21T07:22:10;24.10;;;9.93;;
7841;SDS011;3966;51.052;13.820;2022-11-21T07:24:35;29.05;;;9.98;;
7841;SDS011;3966;51.052;13.820;2022-11-21T07:27:01;24.30;;;10.18;;
7841;SDS011;3966;51.052;13.820;2022-11-21T07:29:26;28.75;;;11.02;;
7841;SDS011;3966;51.052;13.820;2022-11-21T07:31:53;25.05;;;10.80;;
7841;SDS011;3966;51.052;13.820;2022-11-21T07:34:18;30.23;;;11.57;;
7841;SDS011;3966;51.052;13.820;2022-11-21T07:36:44;25.98;;;10.13;;
7841;SDS011;3966;51.052;13.820;2022-11-21T07:39:10;28.90;;;11.57;;
7841;SDS011;3966;51.052;13.820;2022-11-21T07:41:35;33.72;;;11.98;;
7841;SDS011;3966;51.052;13.820;2022-11-21T07:44:01;34.13;;;12.30;;
7841;SDS011;3966;51.052;13.820;2022-11-21T07:46:26;36.95;;;11.73;;
7841;SDS011;3966;51.052;13.820;2022-11-21T07:48:53;29.20;;;12.35;;
7841;SDS011;3966;51.052;13.820;2022-11-21T07:51:19;31.13;;;13.00;;
7841;SDS011;3966;51.052;13.820;2022-11-21T07:53:45;29.55;;;12.70;;
7841;SDS011;3966;51.052;13.820;2022-11-21T07:56:11;32.78;;;12.50;;
7841;SDS011;3966;51.052;13.820;2022-11-21T07:58:36;32.40;;;12.43;;
7841;SDS011;3966;51.052;13.820;2022-11-21T08:01:02;35.50;;;12.82;;
7841;SDS011;3966;51.052;13.820;2022-11-21T08:03:29;32.67;;;13.40;;
7841;SDS011;3966;51.052;13.820;2022-11-21T08:05:56;39.25;;;14.85;;
7841;SDS011;3966;51.052;13.820;2022-11-21T08:08:24;32.17;;;12.57;;
7841;SDS011;3966;51.052;13.820;2022-11-21T08:10:50;40.22;;;14.57;;
7841;SDS011;3966;51.052;13.820;2022-11-21T08:13:16;36.58;;;14.02;;
7841;SDS011;3966;51.052;13.820;2022-11-21T08:15:41;39.85;;;14.40;;
7841;SDS011;3966;51.052;13.820;2022-11-21T08:18:11;39.05;;;14.50;;
7841;SDS011;3966;51.052;13.820;2022-11-21T08:20:38;43.47;;;14.45;;
7841;SDS011;3966;51.052;13.820;2022-11-21T08:23:05;44.05;;;15.50;;
7841;SDS011;3966;51.052;13.820;2022-11-21T08:25:32;38.88;;;13.98;;
7841;SDS011;3966;51.052;13.820;2022-11-21T08:27:58;36.88;;;14.07;;
7841;SDS011;3966;51.052;13.820;2022-11-21T08:30:24;40.15;;;14.52;;
7841;SDS011;3966;51.052;13.820;2022-11-21T08:32:49;32.47;;;13.23;;
7841;SDS011;3966;51.052;13.820;2022-11-21T08:35:15;40.13;;;14.02;;
7841;SDS011;3966;51.052;13.820;2022-11-21T08:37:41;43.17;;;14.65;;
7841;SDS011;3966;51.052;13.820;2022-11-21T08:40:07;39.47;;;14.13;;
7841;SDS011;3966;51.052;13.820;2022-11-21T08:42:33;44.70;;;15.48;;
7841;SDS011;3966;51.052;13.820;2022-11-21T08:44:58;37.92;;;13.40;;
7841;SDS011;3966;51.052;13.820;2022-11-21T08:47:24;40.47;;;14.40;;
7841;SDS011;3966;51.052;13.820;2022-11-21T08:49:49;43.35;;;14.88;;
7841;SDS011;3966;51.052;13.820;2022-11-21T08:52:15;43.13;;;15.73;;
7841;SDS011;3966;51.052;13.820;2022-11-21T08:54:41;45.17;;;16.15;;
7841;SDS011;3966;51.052;13.820;2022-11-21T08:57:08;46.20;;;15.60;;
7841;SDS011;3966;51.052;13.820;2022-11-21T08:59:34;42.95;;;15.15;;
7841;SDS011;3966;51.052;13.820;2022-11-21T09:02:00;46.03;;;15.13;;
7841;SDS011;3966;51.052;13.820;2022-11-21T09:04:25;44.60;;;16.27;;
7841;SDS011;3966;51.052;13.820;2022-11-21T09:06:51;44.83;;;14.70;;
7841;SDS011;3966;51.052;13.820;2022-11-21T09:09:16;44.25;;;15.27;;
7841;SDS011;3966;51.052;13.820;2022-11-21T09:11:42;40.17;;;15.35;;
7841;SDS011;3966;51.052;13.820;2022-11-21T09:14:07;37.67;;;15.05;;
7841;SDS011;3966;51.052;13.820;2022-11-21T09:16:51;45.78;;;15.88;;
7841;SDS011;3966;51.052;13.820;2022-11-21T09:19:35;32.72;;;11.27;;
7841;SDS011;3966;51.052;13.820;2022-11-21T09:22:01;41.70;;;15.10;;
7841;SDS011;3966;51.052;13.820;2022-11-21T09:24:27;40.20;;;14.75;;
7841;SDS011;3966;51.052;13.820;2022-11-21T09:26:52;46.03;;;16.13;;
7841;SDS011;3966;51.052;13.820;2022-11-21T09:29:18;51.33;;;16.63;;
7841;SDS011;3966;51.052;13.820;2022-11-21T09:31:44;42.22;;;15.88;;
7841;SDS011;3966;51.052;13.820;2022-11-21T09:34:09;47.78;;;15.88;;
7841;SDS011;3966;51.052;13.820;2022-11-21T09:36:35;43.78;;;14.77;;
7841;SDS011;3966;51.052;13.820;2022-11-21T09:39:01;47.38;;;15.45;;
7841;SDS011;3966;51.052;13.820;2022-11-21T09:41:40;44.08;;;15.55;;
7841;SDS011;3966;51.052;13.820;2022-11-21T09:44:42;49.40;;;16.95;;
7841;SDS011;3966;51.052;13.820;2022-11-21T09:49:45;54.85;;;17.63;;
7841;SDS011;3966;51.052;13.820;2022-11-21T09:52:16;44.22;;;16.30;;
7841;SDS011;3966;51.052;13.820;2022-11-21T09:54:46;45.10;;;16.70;;
7841;SDS011;3966;51.052;13.820;2022-11-21T09:57:17;53.10;;;17.13;;
7841;SDS011;3966;51.052;13.820;2022-11-21T09:59:45;53.22;;;18.15;;
7841;SDS011;3966;51.052;13.820;2022-11-21T10:02:13;51.13;;;17.90;;
7841;SDS011;3966;51.052;13.820;2022-11-21T10:04:44;50.50;;;17.63;;
7841;SDS011;3966;51.052;13.820;2022-11-21T10:07:29;51.35;;;17.63;;
7841;SDS011;3966;51.052;13.820;2022-11-21T10:15:28;51.70;;;16.08;;
7841;SDS011;3966;51.052;13.820;2022-11-21T10:18:26;50.30;;;15.85;;
7841;SDS011;3966;51.052;13.820;2022-11-21T10:24:07;49.22;;;16.52;;
7841;SDS011;3966;51.052;13.820;2022-11-21T10:26:55;49.97;;;16.27;;
7841;SDS011;3966;51.052;13.820;2022-11-21T10:32:00;51.67;;;18.42;;
7841;SDS011;3966;51.052;13.820;2022-11-21T10:34:34;44.42;;;15.10;;
7841;SDS011;3966;51.052;13.820;2022-11-21T10:37:13;58.30;;;17.75;;
7841;SDS011;3966;51.052;13.820;2022-11-21T10:39:44;46.80;;;15.63;;
7841;SDS011;3966;51.052;13.820;2022-11-21T10:44:54;51.13;;;16.50;;
7841;SDS011;3966;51.052;13.820;2022-11-21T10:47:41;45.72;;;14.88;;
7841;SDS011;3966;51.052;13.820;2022-11-21T10:53:19;48.47;;;15.88;;
7841;SDS011;3966;51.052;13.820;2022-11-21T10:55:24;52.95;;;17.33;;
7841;SDS011;3966;51.052;13.820;2022-11-21T10:57:50;38.08;;;15.13;;
7841;SDS011;3966;51.052;13.820;2022-11-21T11:00:19;45.85;;;17.23;;
7841;SDS011;3966;51.052;13.820;2022-11-21T11:05:38;48.30;;;17.05;;
7841;SDS011;3966;51.052;13.820;2022-11-21T11:10:36;46.80;;;16.50;;
7841;SDS011;3966;51.052;13.820;2022-11-21T11:13:10;44.67;;;15.50;;
7841;SDS011;3966;51.052;13.820;2022-11-21T11:18:33;42.00;;;16.10;;
7841;SDS011;3966;51.052;13.820;2022-11-21T11:21:24;47.25;;;16.42;;
7841;SDS011;3966;51.052;13.820;2022-11-21T11:23:52;46.17;;;15.43;;
7841;SDS011;3966;51.052;13.820;2022-11-21T11:26:23;44.17;;;15.77;;
7841;SDS011;3966;51.052;13.820;2022-11-21T11:28:48;52.67;;;17.42;;
7841;SDS011;3966;51.052;13.820;2022-11-21T11:31:14;45.50;;;14.55;;
7841;SDS011;3966;51.052;13.820;2022-11-21T11:33:52;46.75;;;16.48;;
7841;SDS011;3966;51.052;13.820;2022-11-21T11:36:34;43.42;;;15.57;;
7841;SDS011;3966;51.052;13.820;2022-11-21T11:39:08;42.63;;;16.05;;
7841;SDS011;3966;51.052;13.820;2022-11-21T11:48:00;50.45;;;15.30;;
7841;SDS011;3966;51.052;13.820;2022-11-21T11:53:18;53.28;;;15.48;;
7841;SDS011;3966;51.052;13.820;2022-11-21T11:55:57;50.00;;;14.60;;
7841;SDS011;3966;51.052;13.820;2022-11-21T11:58:44;37.53;;;14.48;;
7841;SDS011;3966;51.052;13.820;2022-11-21T12:06:36;37.45;;;13.73;;
7841;SDS011;3966;51.052;13.820;2022-11-21T12:23:27;34.25;;;13.07;;
7841;SDS011;3966;51.052;13.820;2022-11-21T12:31:34;34.97;;;13.88;;
7841;SDS011;3966;51.052;13.820;2022-11-21T12:42:16;34.03;;;12.77;;
7841;SDS011;3966;51.052;13.820;2022-11-21T12:45:20;22.42;;;8.52;;
7841;SDS011;3966;51.052;13.820;2022-11-21T12:57:08;31.23;;;12.48;;
7841;SDS011;3966;51.052;13.820;2022-11-21T13:05:25;30.85;;;12.30;;
7841;SDS011;3966;51.052;13.820;2022-11-21T13:07:54;28.35;;;11.52;;
7841;SDS011;3966;51.052;13.820;2022-11-21T13:10:26;31.17;;;11.77;;
7841;SDS011;3966;51.052;13.820;2022-11-21T13:13:12;33.35;;;12.80;;
7841;SDS011;3966;51.052;13.820;2022-11-21T13:15:47;34.70;;;11.10;;
7841;SDS011;3966;51.052;13.820;2022-11-21T13:18:22;35.83;;;12.88;;
7841;SDS011;3966;51.052;13.820;2022-11-21T13:21:00;48.63;;;19.02;;
7841;SDS011;3966;51.052;13.820;2022-11-21T13:29:15;30.77;;;13.07;;
7841;SDS011;3966;51.052;13.820;2022-11-21T13:31:44;31.52;;;12.32;;
7841;SDS011;3966;51.052;13.820;2022-11-21T13:36:59;32.40;;;12.45;;
7841;SDS011;3966;51.052;13.820;2022-11-21T13:39:30;27.77;;;11.55;;
7841;SDS011;3966;51.052;13.820;2022-11-21T13:41:58;33.80;;;12.85;;
7841;SDS011;3966;51.052;13.820;2022-11-21T13:44:46;33.30;;;12.80;;
7841;SDS011;3966;51.052;13.820;2022-11-21T13:47:30;31.63;;;12.70;;
7841;SDS011;3966;51.052;13.820;2022-11-21T13:52:58;23.00;;;9.68;;
7841;SDS011;3966;51.052;13.820;2022-11-21T13:55:44;34.45;;;12.93;;
7841;SDS011;3966;51.052;13.820;2022-11-21T14:01:36;28.42;;;11.57;;
7841;SDS011;3966;51.052;13.820;2022-11-21T14:04:23;33.58;;;13.27;;
7841;SDS011;3966;51.052;13.820;2022-11-21T14:06:54;38.88;;;14.15;;
7841;SDS011;3966;51.052;13.820;2022-11-21T14:09:45;35.10;;;13.27;;
7841;SDS011;3966;51.052;13.820;2022-11-21T14:12:19;33.03;;;14.10;;
7841;SDS011;3966;51.052;13.820;2022-11-21T14:17:33;33.92;;;13.25;;
7841;SDS011;3966;51.052;13.820;2022-11-21T14:20:11;33.75;;;12.80;;
7841;SDS011;3966;51.052;13.820;2022-11-21T14:22:41;36.75;;;13.43;;
7841;SDS011;3966;51.052;13.820;2022-11-21T14:25:15;35.75;;;13.50;;
7841;SDS011;3966;51.052;13.820;2022-11-21T14:27:44;27.02;;;11.90;;
7841;SDS011;3966;51.052;13.820;2022-11-21T14:30:32;38.22;;;13.35;;
7841;SDS011;3966;51.052;13.820;2022-11-21T14:38:30;39.08;;;13.90;;
7841;SDS011;3966;51.052;13.820;2022-11-21T14:46:27;36.20;;;14.68;;
7841;SDS011;3966;51.052;13.820;2022-11-21T14:48:54;37.40;;;13.57;;
7841;SDS011;3966;51.052;13.820;2022-11-21T14:51:22;36.13;;;15.10;;
7841;SDS011;3966;51.052;13.820;2022-11-21T14:53:50;41.30;;;15.30;;
7841;SDS011;3966;51.052;13.820;2022-11-21T14:56:21;37.78;;;14.48;;
7841;SDS011;3966;51.052;13.820;2022-11-21T14:58:49;38.90;;;15.48;;
7841;SDS011;3966;51.052;13.820;2022-11-21T15:01:20;39.58;;;14.60;;
7841;SDS011;3966;51.052;13.820;2022-11-21T15:03:55;44.25;;;14.70;;
7841;SDS011;3966;51.052;13.820;2022-11-21T15:06:29;41.72;;;14.88;;
7841;SDS011;3966;51.052;13.820;2022-11-21T15:09:00;39.60;;;14.73;;
7841;SDS011;3966;51.052;13.820;2022-11-21T15:13:56;40.92;;;14.98;;
7841;SDS011;3966;51.052;13.820;2022-11-21T15:16:24;37.95;;;15.32;;
7841;SDS011;3966;51.052;13.820;2022-11-21T15:18:50;43.65;;;15.40;;
7841;SDS011;3966;51.052;13.820;2022-11-21T15:21:16;42.03;;;16.17;;
7841;SDS011;3966;51.052;13.820;2022-11-21T15:23:41;37.75;;;14.68;;
7841;SDS011;3966;51.052;13.820;2022-11-21T15:26:27;41.78;;;15.93;;
7841;SDS011;3966;51.052;13.820;2022-11-21T15:28:57;41.78;;;14.98;;
7841;SDS011;3966;51.052;13.820;2022-11-21T15:31:23;43.25;;;13.43;;
7841;SDS011;3966;51.052;13.820;2022-11-21T15:33:51;41.65;;;14.55;;
7841;SDS011;3966;51.052;13.820;2022-11-21T15:38:51;36.75;;;13.73;;
7841;SDS011;3966;51.052;13.820;2022-11-21T15:46:27;36.63;;;13.57;;
7841;SDS011;3966;51.052;13.820;2022-11-21T15:48:54;41.78;;;14.55;;
7841;SDS011;3966;51.052;13.820;2022-11-21T15:54:22;37.85;;;14.50;;
7841;SDS011;3966;51.052;13.820;2022-11-21T15:56:48;43.00;;;16.00;;
7841;SDS011;3966;51.052;13.820;2022-11-21T15:59:13;44.92;;;14.57;;
7841;SDS011;3966;51.052;13.820;2022-11-21T16:01:40;37.25;;;14.88;;
7841;SDS011;3966;51.052;13.820;2022-11-21T16:04:06;43.42;;;15.20;;
7841;SDS011;3966;51.052;13.820;2022-11-21T16:06:35;49.30;;;15.80;;
7841;SDS011;3966;51.052;13.820;2022-11-21T16:09:01;43.97;;;14.90;;
7841;SDS011;3966;51.052;13.820;2022-11-21T16:13:54;39.40;;;14.60;;
7841;SDS011;3966;51.052;13.820;2022-11-21T16:16:23;41.72;;;15.63;;
7841;SDS011;3966;51.052;13.820;2022-11-21T16:18:50;46.42;;;15.45;;
7841;SDS011;3966;51.052;13.820;2022-11-21T16:21:15;39.20;;;15.02;;
7841;SDS011;3966;51.052;13.820;2022-11-21T16:23:41;45.58;;;15.45;;
7841;SDS011;3966;51.052;13.820;2022-11-21T16:26:08;44.15;;;16.27;;
7841;SDS011;3966;51.052;13.820;2022-11-21T16:28:34;46.15;;;15.13;;
7841;SDS011;3966;51.052;13.820;2022-11-21T16:31:00;45.53;;;16.55;;
7841;SDS011;3966;51.052;13.820;2022-11-21T16:33:26;42.20;;;15.55;;
7841;SDS011;3966;51.052;13.820;2022-11-21T16:35:53;40.92;;;14.88;;
7841;SDS011;3966;51.052;13.820;2022-11-21T16:38:21;50.30;;;16.65;;
7841;SDS011;3966;51.052;13.820;2022-11-21T16:40:56;42.45;;;14.90;;
7841;SDS011;3966;51.052;13.820;2022-11-21T16:43:27;44.92;;;16.83;;
7841;SDS011;3966;51.052;13.820;2022-11-21T16:45:53;46.45;;;15.75;;
7841;SDS011;3966;51.052;13.820;2022-11-21T16:48:20;44.50;;;16.00;;
7841;SDS011;3966;51.052;13.820;2022-11-21T16:50:47;42.58;;;16.17;;
7841;SDS011;3966;51.052;13.820;2022-11-21T16:53:13;42.92;;;14.93;;
7841;SDS011;3966;51.052;13.820;2022-11-21T16:55:40;41.60;;;15.90;;
7841;SDS011;3966;51.052;13.820;2022-11-21T16:58:06;37.30;;;15.20;;
7841;SDS011;3966;51.052;13.820;2022-11-21T17:00:32;43.03;;;16.23;;
7841;SDS011;3966;51.052;13.820;2022-11-21T17:02:58;48.72;;;16.95;;
7841;SDS011;3966;51.052;13.820;2022-11-21T17:05:24;42.65;;;15.63;;
7841;SDS011;3966;51.052;13.820;2022-11-21T17:07:50;43.67;;;16.52;;